sensor_id;sensor_type;location;lat;lon;timestamp;temperature;humidity
21255;DHT22;10785;50.674;17.954;2023-08-12T00:00:49;16.30;99.90
21255;DHT22;10785;50.674;17.954;2023-08-12T00:03:18;16.30;99.90
21255;DHT22;10785;50.674;17.954;2023-08-12T00:05:47;16.30;99.90
21255;DHT22;10785;50.674;17.954;2023-08-12T00:08:16;16.30;99.90
21255;DHT22;10785;50.674;17.954;2023-08-12T00:10:44;16.20;99.90
21255;DHT22;10785;50.674;17.954;2023-08-12T00:13:13;16.10;99.90
21255;DHT22;10785;50.674;17.954;2023-08-12T00:15:45;16.00;99.90
21255;DHT22;10785;50.674;17.954;2023-08-12T00:18:15;15.90;99.90
21255;DHT22;10785;50.674;17.954;2023-08-12T00:20:44;15.90;99.90
21255;DHT22;10785;50.674;17.954;2023-08-12T00:23:13;15.90;99.90
21255;DHT22;10785;50.674;17.954;2023-08-12T00:25:42;15.90;99.90
21255;DHT22;10785;50.674;17.954;2023-08-12T00:28:11;15.90;99.90
21255;DHT22;10785;50.674;17.954;2023-08-12T00:30:40;16.00;99.90
21255;DHT22;10785;50.674;17.954;2023-08-12T00:33:09;15.90;99.90
21255;DHT22;10785;50.674;17.954;2023-08-12T00:35:39;15.90;99.90
21255;DHT22;10785;50.674;17.954;2023-08-12T00:38:08;15.80;99.90
21255;DHT22;10785;50.674;17.954;2023-08-12T00:40:37;15.70;99.90
21255;DHT22;10785;50.674;17.954;2023-08-12T00:43:05;15.70;99.90
21255;DHT22;10785;50.674;17.954;2023-08-12T00:45:34;15.70;99.90
21255;DHT22;10785;50.674;17.954;2023-08-12T00:48:03;15.70;99.90
21255;DHT22;10785;50.674;17.954;2023-08-12T00:50:35;15.60;99.90
21255;DHT22;10785;50.674;17.954;2023-08-12T00:53:06;15.70;99.90
21255;DHT22;10785;50.674;17.954;2023-08-12T00:55:35;15.70;99.90
21255;DHT22;10785;50.674;17.954;2023-08-12T00:58:04;15.60;99.90
21255;DHT22;10785;50.674;17.954;2023-08-12T01:00:33;15.50;99.90
21255;DHT22;10785;50.674;17.954;2023-08-12T01:03:02;15.50;99.90
21255;DHT22;10785;50.674;17.954;2023-08-12T01:05:33;15.50;99.90
21255;DHT22;10785;50.674;17.954;2023-08-12T01:08:06;15.60;99.90
21255;DHT22;10785;50.674;17.954;2023-08-12T01:10:37;15.60;99.90
21255;DHT22;10785;50.674;17.954;2023-08-12T01:13:17;15.60;99.90
21255;DHT22;10785;50.674;17.954;2023-08-12T01:15:50;15.60;99.90
21255;DHT22;10785;50.674;17.954;2023-08-12T01:18:22;15.50;99.90
21255;DHT22;10785;50.674;17.954;2023-08-12T01:20:53;15.50;99.90
21255;DHT22;10785;50.674;17.954;2023-08-12T01:23:24;15.50;99.90
21255;DHT22;10785;50.674;17.954;2023-08-12T01:25:53;15.50;99.90
21255;DHT22;10785;50.674;17.954;2023-08-12T01:28:21;15.50;99.90
21255;DHT22;10785;50.674;17.954;2023-08-12T01:30:56;15.50;99.90
21255;DHT22;10785;50.674;17.954;2023-08-12T01:33:30;15.50;99.90
21255;DHT22;10785;50.674;17.954;2023-08-12T01:36:09;15.50;99.90
21255;DHT22;10785;50.674;17.954;2023-08-12T01:38:40;15.50;99.90
21255;DHT22;10785;50.674;17.954;2023-08-12T01:41:11;15.40;99.90
21255;DHT22;10785;50.674;17.954;2023-08-12T01:43:40;15.40;99.90
21255;DHT22;10785;50.674;17.954;2023-08-12T01:46:09;15.30;99.90
21255;DHT22;10785;50.674;17.954;2023-08-12T01:48:38;15.20;99.90
21255;DHT22;10785;50.674;17.954;2023-08-12T01:51:07;15.10;99.90
21255;DHT22;10785;50.674;17.954;2023-08-12T01:53:36;15.20;99.90
21255;DHT22;10785;50.674;17.954;2023-08-12T01:56:06;15.10;99.90
21255;DHT22;10785;50.674;17.954;2023-08-12T01:58:36;15.10;99.90
21255;DHT22;10785;50.674;17.954;2023-08-12T02:01:05;15.00;99.90
21255;DHT22;10785;50.674;17.954;2023-08-12T02:03:33;15.00;99.90
21255;DHT22;10785;50.674;17.954;2023-08-12T02:06:02;14.90;99.90
21255;DHT22;10785;50.674;17.954;2023-08-12T02:08:30;14.90;99.90
21255;DHT22;10785;50.674;17.954;2023-08-12T02:10:59;14.90;99.90
21255;DHT22;10785;50.674;17.954;2023-08-12T02:13:29;14.90;99.90
21255;DHT22;10785;50.674;17.954;2023-08-12T02:16:00;14.90;99.90
21255;DHT22;10785;50.674;17.954;2023-08-12T02:18:29;14.90;99.90
21255;DHT22;10785;50.674;17.954;2023-08-12T02:20:57;14.90;99.90
21255;DHT22;10785;50.674;17.954;2023-08-12T02:23:26;14.90;99.90
21255;DHT22;10785;50.674;17.954;2023-08-12T02:25:55;14.80;99.90
21255;DHT22;10785;50.674;17.954;2023-08-12T02:28:26;14.80;99.90
21255;DHT22;10785;50.674;17.954;2023-08-12T02:30:56;14.80;99.90
21255;DHT22;10785;50.674;17.954;2023-08-12T02:33:25;14.70;99.90
21255;DHT22;10785;50.674;17.954;2023-08-12T02:35:54;14.70;99.90
21255;DHT22;10785;50.674;17.954;2023-08-12T02:38:25;14.70;99.90
21255;DHT22;10785;50.674;17.954;2023-08-12T02:40:53;14.60;99.90
21255;DHT22;10785;50.674;17.954;2023-08-12T02:43:22;14.50;99.90
21255;DHT22;10785;50.674;17.954;2023-08-12T02:45:51;14.50;99.90
21255;DHT22;10785;50.674;17.954;2023-08-12T02:48:21;14.50;99.90
21255;DHT22;10785;50.674;17.954;2023-08-12T02:50:50;14.40;99.90
21255;DHT22;10785;50.674;17.954;2023-08-12T02:53:19;14.50;99.90
21255;DHT22;10785;50.674;17.954;2023-08-12T02:55:47;14.40;99.90
21255;DHT22;10785;50.674;17.954;2023-08-12T02:58:16;14.30;99.90
21255;DHT22;10785;50.674;17.954;2023-08-12T03:00:45;14.40;99.90
21255;DHT22;10785;50.674;17.954;2023-08-12T03:03:13;14.40;99.90
21255;DHT22;10785;50.674;17.954;2023-08-12T03:05:47;14.40;99.90
21255;DHT22;10785;50.674;17.954;2023-08-12T03:08:16;14.40;99.90
21255;DHT22;10785;50.674;17.954;2023-08-12T03:10:47;14.50;99.90
21255;DHT22;10785;50.674;17.954;2023-08-12T03:13:16;14.50;99.90
21255;DHT22;10785;50.674;17.954;2023-08-12T03:15:45;14.60;99.90
21255;DHT22;10785;50.674;17.954;2023-08-12T03:18:14;14.60;99.90
21255;DHT22;10785;50.674;17.954;2023-08-12T03:20:42;14.60;99.90
21255;DHT22;10785;50.674;17.954;2023-08-12T03:23:13;14.60;99.90
21255;DHT22;10785;50.674;17.954;2023-08-12T03:25:42;14.60;99.90
21255;DHT22;10785;50.674;17.954;2023-08-12T03:28:11;14.50;99.90
21255;DHT22;10785;50.674;17.954;2023-08-12T03:30:41;14.50;99.90
21255;DHT22;10785;50.674;17.954;2023-08-12T03:33:09;14.60;99.90
21255;DHT22;10785;50.674;17.954;2023-08-12T03:35:38;14.60;99.90
21255;DHT22;10785;50.674;17.954;2023-08-12T03:38:07;14.60;99.90
21255;DHT22;10785;50.674;17.954;2023-08-12T03:40:39;14.60;99.90
21255;DHT22;10785;50.674;17.954;2023-08-12T03:43:11;14.60;99.90
21255;DHT22;10785;50.674;17.954;2023-08-12T03:45:40;14.70;99.90
21255;DHT22;10785;50.674;17.954;2023-08-12T03:48:11;14.80;99.90
21255;DHT22;10785;50.674;17.954;2023-08-12T03:50:41;14.90;99.90
21255;DHT22;10785;50.674;17.954;2023-08-12T03:53:10;14.80;99.90
21255;DHT22;10785;50.674;17.954;2023-08-12T03:55:41;14.90;99.90
21255;DHT22;10785;50.674;17.954;2023-08-12T03:58:12;15.00;99.90
21255;DHT22;10785;50.674;17.954;2023-08-12T04:00:41;15.10;99.90
21255;DHT22;10785;50.674;17.954;2023-08-12T04:03:13;15.50;99.90
21255;DHT22;10785;50.674;17.954;2023-08-12T04:05:47;16.00;99.90
21255;DHT22;10785;50.674;17.954;2023-08-12T04:08:17;16.30;99.90
21255;DHT22;10785;50.674;17.954;2023-08-12T04:10:47;16.70;99.90
21255;DHT22;10785;50.674;17.954;2023-08-12T04:13:16;16.90;99.90
21255;DHT22;10785;50.674;17.954;2023-08-12T04:15:48;17.30;99.90
21255;DHT22;10785;50.674;17.954;2023-08-12T04:18:18;17.80;99.90
21255;DHT22;10785;50.674;17.954;2023-08-12T04:20:59;18.10;99.90
21255;DHT22;10785;50.674;17.954;2023-08-12T04:23:28;18.40;99.90
21255;DHT22;10785;50.674;17.954;2023-08-12T04:25:58;18.80;99.90
21255;DHT22;10785;50.674;17.954;2023-08-12T04:28:28;19.10;99.90
21255;DHT22;10785;50.674;17.954;2023-08-12T04:30:58;19.40;99.90
21255;DHT22;10785;50.674;17.954;2023-08-12T04:33:52;19.60;99.90
21255;DHT22;10785;50.674;17.954;2023-08-12T04:36:23;19.90;99.90
21255;DHT22;10785;50.674;17.954;2023-08-12T04:38:53;19.90;99.90
21255;DHT22;10785;50.674;17.954;2023-08-12T04:41:23;19.80;99.90
21255;DHT22;10785;50.674;17.954;2023-08-12T04:43:54;19.70;99.90
21255;DHT22;10785;50.674;17.954;2023-08-12T04:46:27;19.80;99.90
21255;DHT22;10785;50.674;17.954;2023-08-12T04:48:55;19.90;99.90
21255;DHT22;10785;50.674;17.954;2023-08-12T04:51:42;19.80;99.90
21255;DHT22;10785;50.674;17.954;2023-08-12T04:54:10;19.80;99.90
21255;DHT22;10785;50.674;17.954;2023-08-12T04:56:41;20.00;99.90
21255;DHT22;10785;50.674;17.954;2023-08-12T04:59:10;19.90;99.90
21255;DHT22;10785;50.674;17.954;2023-08-12T05:01:39;19.90;99.90
21255;DHT22;10785;50.674;17.954;2023-08-12T05:04:25;20.10;99.90
21255;DHT22;10785;50.674;17.954;2023-08-12T05:06:54;20.30;99.90
21255;DHT22;10785;50.674;17.954;2023-08-12T05:09:23;20.30;99.90
21255;DHT22;10785;50.674;17.954;2023-08-12T05:11:53;20.20;99.90
21255;DHT22;10785;50.674;17.954;2023-08-12T05:14:22;19.80;99.90
21255;DHT22;10785;50.674;17.954;2023-08-12T05:16:51;19.50;99.90
21255;DHT22;10785;50.674;17.954;2023-08-12T05:19:20;19.40;99.90
21255;DHT22;10785;50.674;17.954;2023-08-12T05:21:48;20.10;99.90
21255;DHT22;10785;50.674;17.954;2023-08-12T05:24:17;20.90;99.90
21255;DHT22;10785;50.674;17.954;2023-08-12T05:26:46;21.60;99.90
21255;DHT22;10785;50.674;17.954;2023-08-12T05:29:16;22.40;96.80
21255;DHT22;10785;50.674;17.954;2023-08-12T05:31:45;22.90;92.10
21255;DHT22;10785;50.674;17.954;2023-08-12T05:34:13;23.50;82.80
21255;DHT22;10785;50.674;17.954;2023-08-12T05:36:42;23.90;76.80
21255;DHT22;10785;50.674;17.954;2023-08-12T05:39:11;24.40;69.00
21255;DHT22;10785;50.674;17.954;2023-08-12T05:41:39;25.00;62.70
21255;DHT22;10785;50.674;17.954;2023-08-12T05:44:08;24.90;59.70
21255;DHT22;10785;50.674;17.954;2023-08-12T05:46:38;25.30;52.30
21255;DHT22;10785;50.674;17.954;2023-08-12T05:49:06;25.20;52.90
21255;DHT22;10785;50.674;17.954;2023-08-12T05:51:35;25.80;46.40
21255;DHT22;10785;50.674;17.954;2023-08-12T05:54:05;26.10;38.90
21255;DHT22;10785;50.674;17.954;2023-08-12T05:56:34;26.30;34.40
21255;DHT22;10785;50.674;17.954;2023-08-12T05:59:03;26.50;34.20
21255;DHT22;10785;50.674;17.954;2023-08-12T06:01:31;26.60;28.90
21255;DHT22;10785;50.674;17.954;2023-08-12T06:04:01;26.60;27.80
21255;DHT22;10785;50.674;17.954;2023-08-12T06:06:30;26.30;29.70
21255;DHT22;10785;50.674;17.954;2023-08-12T06:08:59;26.60;28.80
21255;DHT22;10785;50.674;17.954;2023-08-12T06:11:27;26.60;28.50
21255;DHT22;10785;50.674;17.954;2023-08-12T06:13:56;26.90;27.30
21255;DHT22;10785;50.674;17.954;2023-08-12T06:16:25;27.00;25.70
21255;DHT22;10785;50.674;17.954;2023-08-12T06:18:54;26.80;24.80
21255;DHT22;10785;50.674;17.954;2023-08-12T06:21:24;27.30;22.50
21255;DHT22;10785;50.674;17.954;2023-08-12T06:23:53;27.20;25.70
21255;DHT22;10785;50.674;17.954;2023-08-12T06:26:21;26.80;28.40
21255;DHT22;10785;50.674;17.954;2023-08-12T06:28:50;26.90;27.60
21255;DHT22;10785;50.674;17.954;2023-08-12T06:31:19;26.90;25.50
21255;DHT22;10785;50.674;17.954;2023-08-12T06:33:48;27.00;23.90
21255;DHT22;10785;50.674;17.954;2023-08-12T06:36:16;27.00;25.90
21255;DHT22;10785;50.674;17.954;2023-08-12T06:38:46;26.70;31.40
21255;DHT22;10785;50.674;17.954;2023-08-12T06:41:15;26.60;32.70
21255;DHT22;10785;50.674;17.954;2023-08-12T06:43:44;26.40;37.20
21255;DHT22;10785;50.674;17.954;2023-08-12T06:46:12;26.10;43.40
21255;DHT22;10785;50.674;17.954;2023-08-12T06:48:41;25.80;51.30
21255;DHT22;10785;50.674;17.954;2023-08-12T06:51:10;25.60;61.70
21255;DHT22;10785;50.674;17.954;2023-08-12T06:53:39;25.60;59.70
21255;DHT22;10785;50.674;17.954;2023-08-12T06:56:09;25.30;59.70
21255;DHT22;10785;50.674;17.954;2023-08-12T06:58:38;25.20;62.60
21255;DHT22;10785;50.674;17.954;2023-08-12T07:01:06;25.30;59.00
21255;DHT22;10785;50.674;17.954;2023-08-12T07:03:35;25.40;56.00
21255;DHT22;10785;50.674;17.954;2023-08-12T07:06:03;25.40;57.60
21255;DHT22;10785;50.674;17.954;2023-08-12T07:08:32;25.10;66.10
21255;DHT22;10785;50.674;17.954;2023-08-12T07:11:01;25.10;68.00
21255;DHT22;10785;50.674;17.954;2023-08-12T07:13:31;25.00;65.80
21255;DHT22;10785;50.674;17.954;2023-08-12T07:16:00;24.80;66.80
21255;DHT22;10785;50.674;17.954;2023-08-12T07:18:29;24.70;68.50
21255;DHT22;10785;50.674;17.954;2023-08-12T07:20:58;24.90;63.40
21255;DHT22;10785;50.674;17.954;2023-08-12T07:23:27;25.00;62.00
21255;DHT22;10785;50.674;17.954;2023-08-12T07:25:56;25.00;59.70
21255;DHT22;10785;50.674;17.954;2023-08-12T07:28:24;25.10;58.60
21255;DHT22;10785;50.674;17.954;2023-08-12T07:30:54;25.10;61.50
21255;DHT22;10785;50.674;17.954;2023-08-12T07:33:23;24.80;66.90
21255;DHT22;10785;50.674;17.954;2023-08-12T07:35:52;24.70;75.70
21255;DHT22;10785;50.674;17.954;2023-08-12T07:38:20;24.80;78.60
21255;DHT22;10785;50.674;17.954;2023-08-12T07:40:49;24.80;78.20
21255;DHT22;10785;50.674;17.954;2023-08-12T07:43:18;25.00;76.40
21255;DHT22;10785;50.674;17.954;2023-08-12T07:45:51;25.10;71.10
21255;DHT22;10785;50.674;17.954;2023-08-12T07:48:36;25.00;73.20
21255;DHT22;10785;50.674;17.954;2023-08-12T07:51:05;24.90;80.10
21255;DHT22;10785;50.674;17.954;2023-08-12T07:53:34;25.10;76.10
21255;DHT22;10785;50.674;17.954;2023-08-12T07:56:03;25.20;75.10
21255;DHT22;10785;50.674;17.954;2023-08-12T07:58:31;25.10;75.20
21255;DHT22;10785;50.674;17.954;2023-08-12T08:01:04;25.10;75.30
21255;DHT22;10785;50.674;17.954;2023-08-12T08:03:33;25.00;69.80
21255;DHT22;10785;50.674;17.954;2023-08-12T08:06:03;25.20;73.60
21255;DHT22;10785;50.674;17.954;2023-08-12T08:08:32;25.40;70.60
21255;DHT22;10785;50.674;17.954;2023-08-12T08:11:00;25.30;67.20
21255;DHT22;10785;50.674;17.954;2023-08-12T08:13:29;25.50;67.30
21255;DHT22;10785;50.674;17.954;2023-08-12T08:15:58;25.50;69.50
21255;DHT22;10785;50.674;17.954;2023-08-12T08:18:27;25.40;73.90
21255;DHT22;10785;50.674;17.954;2023-08-12T08:20:55;25.50;68.10
21255;DHT22;10785;50.674;17.954;2023-08-12T08:23:25;25.50;64.70
21255;DHT22;10785;50.674;17.954;2023-08-12T08:25:54;25.40;68.10
21255;DHT22;10785;50.674;17.954;2023-08-12T08:28:23;25.40;65.60
21255;DHT22;10785;50.674;17.954;2023-08-12T08:30:51;25.50;66.50
21255;DHT22;10785;50.674;17.954;2023-08-12T08:33:38;25.60;72.90
21255;DHT22;10785;50.674;17.954;2023-08-12T08:36:11;25.70;64.00
21255;DHT22;10785;50.674;17.954;2023-08-12T08:38:40;25.70;64.80
21255;DHT22;10785;50.674;17.954;2023-08-12T08:41:09;25.70;59.00
21255;DHT22;10785;50.674;17.954;2023-08-12T08:43:43;25.90;53.80
21255;DHT22;10785;50.674;17.954;2023-08-12T08:46:14;26.00;48.80
21255;DHT22;10785;50.674;17.954;2023-08-12T08:48:44;26.00;53.70
21255;DHT22;10785;50.674;17.954;2023-08-12T08:51:13;26.10;53.90
21255;DHT22;10785;50.674;17.954;2023-08-12T08:53:43;26.20;44.40
21255;DHT22;10785;50.674;17.954;2023-08-12T08:56:12;26.20;36.70
21255;DHT22;10785;50.674;17.954;2023-08-12T08:58:42;26.30;37.90
21255;DHT22;10785;50.674;17.954;2023-08-12T09:01:10;26.30;27.30
21255;DHT22;10785;50.674;17.954;2023-08-12T09:03:41;26.30;41.00
21255;DHT22;10785;50.674;17.954;2023-08-12T09:06:11;26.20;44.00
21255;DHT22;10785;50.674;17.954;2023-08-12T09:08:41;26.30;34.40
21255;DHT22;10785;50.674;17.954;2023-08-12T09:11:13;26.30;35.80
21255;DHT22;10785;50.674;17.954;2023-08-12T09:13:43;26.30;44.00
21255;DHT22;10785;50.674;17.954;2023-08-12T09:16:11;26.40;34.60
21255;DHT22;10785;50.674;17.954;2023-08-12T09:18:42;26.50;36.20
21255;DHT22;10785;50.674;17.954;2023-08-12T09:21:11;26.40;37.20
21255;DHT22;10785;50.674;17.954;2023-08-12T09:23:41;26.50;33.70
21255;DHT22;10785;50.674;17.954;2023-08-12T09:26:15;26.50;30.00
21255;DHT22;10785;50.674;17.954;2023-08-12T09:28:44;26.50;33.30
21255;DHT22;10785;50.674;17.954;2023-08-12T09:31:22;26.60;30.00
21255;DHT22;10785;50.674;17.954;2023-08-12T09:33:53;26.60;26.90
21255;DHT22;10785;50.674;17.954;2023-08-12T09:36:22;26.50;29.20
21255;DHT22;10785;50.674;17.954;2023-08-12T09:38:51;26.50;31.40
21255;DHT22;10785;50.674;17.954;2023-08-12T09:41:22;26.40;34.60
21255;DHT22;10785;50.674;17.954;2023-08-12T09:43:51;26.40;30.60
21255;DHT22;10785;50.674;17.954;2023-08-12T09:46:22;26.50;39.50
21255;DHT22;10785;50.674;17.954;2023-08-12T09:48:51;26.60;32.20
21255;DHT22;10785;50.674;17.954;2023-08-12T09:51:21;26.60;31.90
21255;DHT22;10785;50.674;17.954;2023-08-12T09:53:50;26.60;34.30
21255;DHT22;10785;50.674;17.954;2023-08-12T09:56:23;26.70;29.30
21255;DHT22;10785;50.674;17.954;2023-08-12T09:58:52;26.70;34.80
21255;DHT22;10785;50.674;17.954;2023-08-12T10:01:22;26.70;30.80
21255;DHT22;10785;50.674;17.954;2023-08-12T10:03:53;26.80;35.60
21255;DHT22;10785;50.674;17.954;2023-08-12T10:06:23;27.00;26.40
21255;DHT22;10785;50.674;17.954;2023-08-12T10:08:53;27.00;28.20
21255;DHT22;10785;50.674;17.954;2023-08-12T10:11:23;27.00;28.10
21255;DHT22;10785;50.674;17.954;2023-08-12T10:13:53;27.10;30.80
21255;DHT22;10785;50.674;17.954;2023-08-12T10:16:23;27.00;24.90
21255;DHT22;10785;50.674;17.954;2023-08-12T10:18:52;27.00;25.20
21255;DHT22;10785;50.674;17.954;2023-08-12T10:21:21;27.00;29.20
21255;DHT22;10785;50.674;17.954;2023-08-12T10:23:50;27.00;27.80
21255;DHT22;10785;50.674;17.954;2023-08-12T10:26:19;27.00;33.40
21255;DHT22;10785;50.674;17.954;2023-08-12T10:28:50;27.00;30.70
21255;DHT22;10785;50.674;17.954;2023-08-12T10:31:19;27.20;31.70
21255;DHT22;10785;50.674;17.954;2023-08-12T10:33:48;27.30;33.00
21255;DHT22;10785;50.674;17.954;2023-08-12T10:36:17;27.40;28.40
21255;DHT22;10785;50.674;17.954;2023-08-12T10:38:46;27.50;28.80
21255;DHT22;10785;50.674;17.954;2023-08-12T10:41:17;27.50;22.30
21255;DHT22;10785;50.674;17.954;2023-08-12T10:43:51;27.50;25.20
21255;DHT22;10785;50.674;17.954;2023-08-12T10:46:29;27.50;29.20
21255;DHT22;10785;50.674;17.954;2023-08-12T10:49:01;27.40;27.20
21255;DHT22;10785;50.674;17.954;2023-08-12T10:51:41;27.50;26.20
21255;DHT22;10785;50.674;17.954;2023-08-12T10:54:20;27.50;21.70
21255;DHT22;10785;50.674;17.954;2023-08-12T10:57:08;27.50;23.70
21255;DHT22;10785;50.674;17.954;2023-08-12T10:59:57;27.50;24.60
21255;DHT22;10785;50.674;17.954;2023-08-12T11:02:27;27.60;28.30
21255;DHT22;10785;50.674;17.954;2023-08-12T11:04:57;27.50;21.10
21255;DHT22;10785;50.674;17.954;2023-08-12T11:07:33;27.60;19.80
21255;DHT22;10785;50.674;17.954;2023-08-12T11:10:10;27.80;19.10
21255;DHT22;10785;50.674;17.954;2023-08-12T11:12:40;27.90;18.00
21255;DHT22;10785;50.674;17.954;2023-08-12T11:15:10;28.20;11.60
21255;DHT22;10785;50.674;17.954;2023-08-12T11:17:40;28.30;11.30
21255;DHT22;10785;50.674;17.954;2023-08-12T11:20:10;28.10;14.00
21255;DHT22;10785;50.674;17.954;2023-08-12T11:22:41;28.20;13.00
21255;DHT22;10785;50.674;17.954;2023-08-12T11:25:11;28.20;11.50
21255;DHT22;10785;50.674;17.954;2023-08-12T11:27:41;28.30;14.30
21255;DHT22;10785;50.674;17.954;2023-08-12T11:30:13;28.30;8.90
21255;DHT22;10785;50.674;17.954;2023-08-12T11:32:43;28.30;4.20
21255;DHT22;10785;50.674;17.954;2023-08-12T11:35:13;28.30;7.40
21255;DHT22;10785;50.674;17.954;2023-08-12T11:37:44;28.30;3.10
21255;DHT22;10785;50.674;17.954;2023-08-12T11:40:15;28.50;4.00
21255;DHT22;10785;50.674;17.954;2023-08-12T11:42:45;28.40;1.00
21255;DHT22;10785;50.674;17.954;2023-08-12T11:45:19;28.50;1.00
21255;DHT22;10785;50.674;17.954;2023-08-12T11:47:48;28.50;6.20
21255;DHT22;10785;50.674;17.954;2023-08-12T11:50:23;28.50;5.20
21255;DHT22;10785;50.674;17.954;2023-08-12T11:52:53;28.60;1.00
21255;DHT22;10785;50.674;17.954;2023-08-12T11:55:22;28.50;1.00
21255;DHT22;10785;50.674;17.954;2023-08-12T11:57:51;28.50;1.00
21255;DHT22;10785;50.674;17.954;2023-08-12T12:00:21;28.40;2.40
21255;DHT22;10785;50.674;17.954;2023-08-12T12:02:54;28.50;1.70
21255;DHT22;10785;50.674;17.954;2023-08-12T12:05:25;28.60;1.00
21255;DHT22;10785;50.674;17.954;2023-08-12T12:07:54;28.50;1.00
21255;DHT22;10785;50.674;17.954;2023-08-12T12:10:28;28.50;1.00
21255;DHT22;10785;50.674;17.954;2023-08-12T12:13:03;28.40;1.00
21255;DHT22;10785;50.674;17.954;2023-08-12T12:15:38;28.40;1.00
21255;DHT22;10785;50.674;17.954;2023-08-12T12:18:10;28.50;1.00
21255;DHT22;10785;50.674;17.954;2023-08-12T12:20:53;28.50;1.00
21255;DHT22;10785;50.674;17.954;2023-08-12T12:23:22;28.50;1.00
21255;DHT22;10785;50.674;17.954;2023-08-12T12:25:58;28.60;1.00
21255;DHT22;10785;50.674;17.954;2023-08-12T12:28:27;28.50;1.00
21255;DHT22;10785;50.674;17.954;2023-08-12T12:30:57;28.40;3.50
21255;DHT22;10785;50.674;17.954;2023-08-12T12:33:26;28.50;3.60
21255;DHT22;10785;50.674;17.954;2023-08-12T12:35:55;28.60;1.00
21255;DHT22;10785;50.674;17.954;2023-08-12T12:38:28;28.70;1.00
21255;DHT22;10785;50.674;17.954;2023-08-12T12:40:56;28.70;1.00
21255;DHT22;10785;50.674;17.954;2023-08-12T12:43:25;28.40;1.00
21255;DHT22;10785;50.674;17.954;2023-08-12T12:45:54;28.50;1.00
21255;DHT22;10785;50.674;17.954;2023-08-12T12:48:24;28.60;1.00
21255;DHT22;10785;50.674;17.954;2023-08-12T12:50:52;28.50;1.00
21255;DHT22;10785;50.674;17.954;2023-08-12T12:53:21;28.50;1.00
21255;DHT22;10785;50.674;17.954;2023-08-12T12:55:50;28.50;1.00
21255;DHT22;10785;50.674;17.954;2023-08-12T12:58:19;28.60;1.00
21255;DHT22;10785;50.674;17.954;2023-08-12T13:00:49;28.70;1.40
21255;DHT22;10785;50.674;17.954;2023-08-12T13:03:18;28.80;1.00
21255;DHT22;10785;50.674;17.954;2023-08-12T13:05:49;28.90;1.00
21255;DHT22;10785;50.674;17.954;2023-08-12T13:08:18;29.00;1.00
21255;DHT22;10785;50.674;17.954;2023-08-12T13:10:47;28.80;1.00
21255;DHT22;10785;50.674;17.954;2023-08-12T13:13:16;28.80;1.00
21255;DHT22;10785;50.674;17.954;2023-08-12T13:15:45;28.80;1.00
21255;DHT22;10785;50.674;17.954;2023-08-12T13:18:14;28.80;1.00
21255;DHT22;10785;50.674;17.954;2023-08-12T13:20:43;28.80;1.00
21255;DHT22;10785;50.674;17.954;2023-08-12T13:23:14;28.80;1.00
21255;DHT22;10785;50.674;17.954;2023-08-12T13:25:43;28.90;1.00
21255;DHT22;10785;50.674;17.954;2023-08-12T13:28:11;29.00;1.00
21255;DHT22;10785;50.674;17.954;2023-08-12T13:30:40;28.90;1.00
21255;DHT22;10785;50.674;17.954;2023-08-12T13:33:09;28.90;1.00
21255;DHT22;10785;50.674;17.954;2023-08-12T13:35:38;28.90;1.00
21255;DHT22;10785;50.674;17.954;2023-08-12T13:38:06;28.90;1.00
21255;DHT22;10785;50.674;17.954;2023-08-12T13:40:36;29.00;1.00
21255;DHT22;10785;50.674;17.954;2023-08-12T13:43:05;29.00;1.00
21255;DHT22;10785;50.674;17.954;2023-08-12T13:45:34;29.00;1.00
21255;DHT22;10785;50.674;17.954;2023-08-12T13:48:04;29.00;1.00
21255;DHT22;10785;50.674;17.954;2023-08-12T13:50:32;29.10;1.00
21255;DHT22;10785;50.674;17.954;2023-08-12T13:53:01;29.10;1.00
21255;DHT22;10785;50.674;17.954;2023-08-12T13:55:30;29.20;1.00
21255;DHT22;10785;50.674;17.954;2023-08-12T13:58:00;29.20;1.00
21255;DHT22;10785;50.674;17.954;2023-08-12T14:00:28;29.20;1.00
21255;DHT22;10785;50.674;17.954;2023-08-12T14:02:57;29.10;1.00
21255;DHT22;10785;50.674;17.954;2023-08-12T14:05:26;29.10;1.00
21255;DHT22;10785;50.674;17.954;2023-08-12T14:07:54;28.90;1.00
21255;DHT22;10785;50.674;17.954;2023-08-12T14:10:23;29.00;1.00
21255;DHT22;10785;50.674;17.954;2023-08-12T14:12:52;29.00;1.00
21255;DHT22;10785;50.674;17.954;2023-08-12T14:15:22;29.00;1.00
21255;DHT22;10785;50.674;17.954;2023-08-12T14:17:50;29.20;1.00
21255;DHT22;10785;50.674;17.954;2023-08-12T14:20:19;29.10;1.00
21255;DHT22;10785;50.674;17.954;2023-08-12T14:22:48;29.10;1.00
21255;DHT22;10785;50.674;17.954;2023-08-12T14:25:17;29.10;1.00
21255;DHT22;10785;50.674;17.954;2023-08-12T14:27:46;29.10;1.00
21255;DHT22;10785;50.674;17.954;2023-08-12T14:30:18;29.10;1.00
21255;DHT22;10785;50.674;17.954;2023-08-12T14:32:48;29.10;1.00
21255;DHT22;10785;50.674;17.954;2023-08-12T14:35:18;29.10;1.00
21255;DHT22;10785;50.674;17.954;2023-08-12T14:37:47;29.10;1.00
21255;DHT22;10785;50.674;17.954;2023-08-12T14:40:16;29.10;1.00
21255;DHT22;10785;50.674;17.954;2023-08-12T14:42:46;29.20;1.00
21255;DHT22;10785;50.674;17.954;2023-08-12T14:45:15;29.20;1.00
21255;DHT22;10785;50.674;17.954;2023-08-12T14:47:44;29.30;1.00
21255;DHT22;10785;50.674;17.954;2023-08-12T14:50:14;29.30;1.00
21255;DHT22;10785;50.674;17.954;2023-08-12T14:52:42;29.30;1.00
21255;DHT22;10785;50.674;17.954;2023-08-12T14:55:11;29.30;1.00
21255;DHT22;10785;50.674;17.954;2023-08-12T14:57:40;29.30;1.00
21255;DHT22;10785;50.674;17.954;2023-08-12T15:00:10;29.20;1.00
21255;DHT22;10785;50.674;17.954;2023-08-12T15:02:39;29.10;1.00
21255;DHT22;10785;50.674;17.954;2023-08-12T15:05:08;29.10;1.00
21255;DHT22;10785;50.674;17.954;2023-08-12T15:07:38;29.10;1.00
21255;DHT22;10785;50.674;17.954;2023-08-12T15:10:07;29.10;1.00
21255;DHT22;10785;50.674;17.954;2023-08-12T15:12:47;29.10;1.00
21255;DHT22;10785;50.674;17.954;2023-08-12T15:15:15;29.10;1.00
21255;DHT22;10785;50.674;17.954;2023-08-12T15:17:44;29.10;1.00
21255;DHT22;10785;50.674;17.954;2023-08-12T15:20:13;29.00;1.00
21255;DHT22;10785;50.674;17.954;2023-08-12T15:22:43;29.10;1.00
21255;DHT22;10785;50.674;17.954;2023-08-12T15:25:12;29.10;1.00
21255;DHT22;10785;50.674;17.954;2023-08-12T15:27:41;29.00;1.00
21255;DHT22;10785;50.674;17.954;2023-08-12T15:30:10;28.90;1.00
21255;DHT22;10785;50.674;17.954;2023-08-12T15:32:38;28.90;1.00
21255;DHT22;10785;50.674;17.954;2023-08-12T15:35:09;28.90;1.00
21255;DHT22;10785;50.674;17.954;2023-08-12T15:37:38;28.90;1.00